sensor_id;sensor_type;location;lat;lon;timestamp;P1;durP1;ratioP1;P2;durP2;ratioP2
13085;SDS011;6609;49.882;8.664;2023-02-11T00:00:42;43.60;;;23.33;;
13085;SDS011;6609;49.882;8.664;2023-02-11T00:03:09;41.03;;;22.40;;
13085;SDS011;6609;49.882;8.664;2023-02-11T00:05:36;40.27;;;22.47;;
13085;SDS011;6609;49.882;8.664;2023-02-11T00:08:05;39.40;;;21.47;;
13085;SDS011;6609;49.882;8.664;2023-02-11T00:10:32;43.42;;;22.17;;
13085;SDS011;6609;49.882;8.664;2023-02-11T00:12:59;38.93;;;21.60;;
13085;SDS011;6609;49.882;8.664;2023-02-11T00:15:26;43.80;;;22.03;;
13085;SDS011;6609;49.882;8.664;2023-02-11T00:17:53;40.13;;;21.92;;
13085;SDS011;6609;49.882;8.664;2023-02-11T00:20:20;42.88;;;21.58;;
13085;SDS011;6609;49.882;8.664;2023-02-11T00:22:47;39.23;;;22.13;;
13085;SDS011;6609;49.882;8.664;2023-02-11T00:25:15;37.83;;;21.33;;
13085;SDS011;6609;49.882;8.664;2023-02-11T00:27:43;40.50;;;21.50;;
13085;SDS011;6609;49.882;8.664;2023-02-11T00:30:10;42.60;;;22.10;;
13085;SDS011;6609;49.882;8.664;2023-02-11T00:32:37;38.23;;;20.50;;
13085;SDS011;6609;49.882;8.664;2023-02-11T00:35:06;38.43;;;21.07;;
13085;SDS011;6609;49.882;8.664;2023-02-11T00:37:33;41.63;;;21.60;;
13085;SDS011;6609;49.882;8.664;2023-02-11T00:40:01;39.47;;;22.10;;
13085;SDS011;6609;49.882;8.664;2023-02-11T00:42:29;35.73;;;20.57;;
13085;SDS011;6609;49.882;8.664;2023-02-11T00:44:56;43.03;;;21.80;;
13085;SDS011;6609;49.882;8.664;2023-02-11T00:47:23;38.97;;;20.70;;
13085;SDS011;6609;49.882;8.664;2023-02-11T00:49:50;38.60;;;21.23;;
13085;SDS011;6609;49.882;8.664;2023-02-11T00:52:16;41.17;;;21.37;;
13085;SDS011;6609;49.882;8.664;2023-02-11T00:54:43;42.00;;;21.37;;
13085;SDS011;6609;49.882;8.664;2023-02-11T00:57:10;38.27;;;19.63;;
13085;SDS011;6609;49.882;8.664;2023-02-11T00:59:39;32.87;;;19.77;;
13085;SDS011;6609;49.882;8.664;2023-02-11T01:02:06;37.93;;;19.97;;
13085;SDS011;6609;49.882;8.664;2023-02-11T01:04:34;35.13;;;20.95;;
13085;SDS011;6609;49.882;8.664;2023-02-11T01:07:01;39.83;;;20.90;;
13085;SDS011;6609;49.882;8.664;2023-02-11T01:09:28;36.78;;;20.45;;
13085;SDS011;6609;49.882;8.664;2023-02-11T01:11:55;40.28;;;22.35;;
13085;SDS011;6609;49.882;8.664;2023-02-11T01:14:21;40.10;;;20.87;;
13085;SDS011;6609;49.882;8.664;2023-02-11T01:16:50;43.67;;;22.00;;
13085;SDS011;6609;49.882;8.664;2023-02-11T01:19:17;40.05;;;20.73;;
13085;SDS011;6609;49.882;8.664;2023-02-11T01:21:44;35.75;;;20.67;;
13085;SDS011;6609;49.882;8.664;2023-02-11T01:24:11;37.88;;;20.38;;
13085;SDS011;6609;49.882;8.664;2023-02-11T01:26:38;39.92;;;21.67;;
13085;SDS011;6609;49.882;8.664;2023-02-11T01:29:05;37.27;;;18.87;;
13085;SDS011;6609;49.882;8.664;2023-02-11T01:31:33;36.13;;;19.83;;
13085;SDS011;6609;49.882;8.664;2023-02-11T01:34:01;37.47;;;20.37;;
13085;SDS011;6609;49.882;8.664;2023-02-11T01:36:27;43.30;;;20.63;;
13085;SDS011;6609;49.882;8.664;2023-02-11T01:38:55;37.30;;;20.20;;
13085;SDS011;6609;49.882;8.664;2023-02-11T01:41:22;35.20;;;19.30;;
13085;SDS011;6609;49.882;8.664;2023-02-11T01:43:48;37.23;;;20.37;;
13085;SDS011;6609;49.882;8.664;2023-02-11T01:46:30;36.37;;;20.13;;
13085;SDS011;6609;49.882;8.664;2023-02-11T01:48:59;39.17;;;21.10;;
13085;SDS011;6609;49.882;8.664;2023-02-11T01:51:31;37.03;;;18.97;;
13085;SDS011;6609;49.882;8.664;2023-02-11T01:54:02;37.07;;;18.97;;
13085;SDS011;6609;49.882;8.664;2023-02-11T01:56:48;33.90;;;18.70;;
13085;SDS011;6609;49.882;8.664;2023-02-11T01:59:37;38.30;;;18.50;;
13085;SDS011;6609;49.882;8.664;2023-02-11T02:02:07;32.67;;;17.87;;
13085;SDS011;6609;49.882;8.664;2023-02-11T02:04:40;37.77;;;18.30;;
13085;SDS011;6609;49.882;8.664;2023-02-11T02:07:13;31.80;;;19.00;;
13085;SDS011;6609;49.882;8.664;2023-02-11T02:09:45;33.43;;;18.07;;
13085;SDS011;6609;49.882;8.664;2023-02-11T02:12:14;34.17;;;17.33;;
13085;SDS011;6609;49.882;8.664;2023-02-11T02:14:41;38.43;;;19.37;;
13085;SDS011;6609;49.882;8.664;2023-02-11T02:17:09;34.20;;;18.57;;
13085;SDS011;6609;49.882;8.664;2023-02-11T02:19:54;33.83;;;19.07;;
13085;SDS011;6609;49.882;8.664;2023-02-11T02:22:46;38.23;;;18.97;;
13085;SDS011;6609;49.882;8.664;2023-02-11T02:25:27;34.00;;;17.40;;
13085;SDS011;6609;49.882;8.664;2023-02-11T02:28:12;30.80;;;16.93;;
13085;SDS011;6609;49.882;8.664;2023-02-11T02:31:04;38.03;;;17.87;;
13085;SDS011;6609;49.882;8.664;2023-02-11T02:33:48;32.27;;;16.60;;
13085;SDS011;6609;49.882;8.664;2023-02-11T02:36:21;28.33;;;17.47;;
13085;SDS011;6609;49.882;8.664;2023-02-11T02:38:56;34.07;;;17.87;;
13085;SDS011;6609;49.882;8.664;2023-02-11T02:41:27;30.63;;;16.80;;
13085;SDS011;6609;49.882;8.664;2023-02-11T02:43:56;35.37;;;17.27;;
13085;SDS011;6609;49.882;8.664;2023-02-11T02:46:24;31.53;;;17.23;;
13085;SDS011;6609;49.882;8.664;2023-02-11T02:48:53;34.85;;;18.83;;
13085;SDS011;6609;49.882;8.664;2023-02-11T02:54:34;34.93;;;17.93;;
13085;SDS011;6609;49.882;8.664;2023-02-11T02:57:27;29.27;;;17.30;;
13085;SDS011;6609;49.882;8.664;2023-02-11T03:02:46;37.33;;;18.47;;
13085;SDS011;6609;49.882;8.664;2023-02-11T03:05:22;30.43;;;16.77;;
13085;SDS011;6609;49.882;8.664;2023-02-11T03:07:58;33.27;;;16.93;;
13085;SDS011;6609;49.882;8.664;2023-02-11T03:10:33;31.93;;;17.07;;
13085;SDS011;6609;49.882;8.664;2023-02-11T03:13:03;32.57;;;18.27;;
13085;SDS011;6609;49.882;8.664;2023-02-11T03:15:31;31.63;;;18.03;;
13085;SDS011;6609;49.882;8.664;2023-02-11T03:18:02;29.33;;;16.80;;
13085;SDS011;6609;49.882;8.664;2023-02-11T03:20:34;28.23;;;16.30;;
13085;SDS011;6609;49.882;8.664;2023-02-11T03:23:03;35.20;;;16.93;;
13085;SDS011;6609;49.882;8.664;2023-02-11T03:25:36;33.67;;;18.13;;
13085;SDS011;6609;49.882;8.664;2023-02-11T03:28:10;32.33;;;17.20;;
13085;SDS011;6609;49.882;8.664;2023-02-11T03:30:40;32.27;;;16.93;;
13085;SDS011;6609;49.882;8.664;2023-02-11T03:33:12;31.73;;;17.00;;
13085;SDS011;6609;49.882;8.664;2023-02-11T03:35:47;31.00;;;16.70;;
13085;SDS011;6609;49.882;8.664;2023-02-11T03:38:19;31.27;;;18.20;;
13085;SDS011;6609;49.882;8.664;2023-02-11T03:40:48;31.00;;;17.10;;
13085;SDS011;6609;49.882;8.664;2023-02-11T03:43:16;34.33;;;17.17;;
13085;SDS011;6609;49.882;8.664;2023-02-11T03:45:47;29.37;;;18.27;;
13085;SDS011;6609;49.882;8.664;2023-02-11T03:48:17;30.67;;;17.60;;
13085;SDS011;6609;49.882;8.664;2023-02-11T03:50:47;32.13;;;16.33;;
13085;SDS011;6609;49.882;8.664;2023-02-11T03:53:15;33.93;;;17.60;;
13085;SDS011;6609;49.882;8.664;2023-02-11T03:55:43;28.73;;;16.53;;
13085;SDS011;6609;49.882;8.664;2023-02-11T03:58:11;31.73;;;17.07;;
13085;SDS011;6609;49.882;8.664;2023-02-11T04:00:38;27.10;;;16.03;;
13085;SDS011;6609;49.882;8.664;2023-02-11T04:03:07;27.23;;;16.23;;
13085;SDS011;6609;49.882;8.664;2023-02-11T04:05:35;29.77;;;15.80;;
13085;SDS011;6609;49.882;8.664;2023-02-11T04:08:03;27.30;;;15.73;;
13085;SDS011;6609;49.882;8.664;2023-02-11T04:10:30;36.90;;;16.70;;
13085;SDS011;6609;49.882;8.664;2023-02-11T04:12:57;33.47;;;17.00;;
13085;SDS011;6609;49.882;8.664;2023-02-11T04:15:24;31.80;;;16.80;;
13085;SDS011;6609;49.882;8.664;2023-02-11T04:17:51;31.63;;;16.70;;
13085;SDS011;6609;49.882;8.664;2023-02-11T04:20:18;32.30;;;17.40;;
13085;SDS011;6609;49.882;8.664;2023-02-11T04:22:45;30.93;;;16.03;;
13085;SDS011;6609;49.882;8.664;2023-02-11T04:25:14;30.47;;;16.27;;
13085;SDS011;6609;49.882;8.664;2023-02-11T04:27:40;33.33;;;15.93;;
13085;SDS011;6609;49.882;8.664;2023-02-11T04:30:07;33.97;;;16.80;;
13085;SDS011;6609;49.882;8.664;2023-02-11T04:32:35;32.57;;;16.70;;
13085;SDS011;6609;49.882;8.664;2023-02-11T04:35:02;33.33;;;16.90;;
13085;SDS011;6609;49.882;8.664;2023-02-11T04:37:29;33.30;;;17.73;;
13085;SDS011;6609;49.882;8.664;2023-02-11T04:39:55;29.87;;;16.70;;
13085;SDS011;6609;49.882;8.664;2023-02-11T04:42:24;29.17;;;16.67;;
13085;SDS011;6609;49.882;8.664;2023-02-11T04:44:51;33.53;;;15.83;;
13085;SDS011;6609;49.882;8.664;2023-02-11T04:47:18;31.70;;;16.43;;
13085;SDS011;6609;49.882;8.664;2023-02-11T04:49:45;30.07;;;16.57;;
13085;SDS011;6609;49.882;8.664;2023-02-11T04:52:12;29.53;;;16.43;;
13085;SDS011;6609;49.882;8.664;2023-02-11T04:54:39;28.73;;;15.20;;
13085;SDS011;6609;49.882;8.664;2023-02-11T04:57:06;33.23;;;18.27;;
13085;SDS011;6609;49.882;8.664;2023-02-11T04:59:35;34.97;;;16.57;;
13085;SDS011;6609;49.882;8.664;2023-02-11T05:02:01;30.53;;;16.40;;
13085;SDS011;6609;49.882;8.664;2023-02-11T05:04:29;32.00;;;16.97;;
13085;SDS011;6609;49.882;8.664;2023-02-11T05:06:56;31.27;;;17.20;;
13085;SDS011;6609;49.882;8.664;2023-02-11T05:09:22;29.10;;;15.23;;
13085;SDS011;6609;49.882;8.664;2023-02-11T05:11:49;30.07;;;15.47;;
13085;SDS011;6609;49.882;8.664;2023-02-11T05:14:16;33.60;;;16.87;;
13085;SDS011;6609;49.882;8.664;2023-02-11T05:16:44;28.87;;;15.27;;
13085;SDS011;6609;49.882;8.664;2023-02-11T05:19:11;31.13;;;16.20;;
13085;SDS011;6609;49.882;8.664;2023-02-11T05:21:38;27.30;;;15.37;;
13085;SDS011;6609;49.882;8.664;2023-02-11T05:24:06;30.50;;;17.60;;
13085;SDS011;6609;49.882;8.664;2023-02-11T05:26:33;31.47;;;17.33;;
13085;SDS011;6609;49.882;8.664;2023-02-11T05:28:59;32.90;;;17.58;;
13085;SDS011;6609;49.882;8.664;2023-02-11T05:31:26;36.43;;;16.40;;
13085;SDS011;6609;49.882;8.664;2023-02-11T05:33:55;28.17;;;16.90;;
13085;SDS011;6609;49.882;8.664;2023-02-11T05:36:21;27.73;;;16.23;;
13085;SDS011;6609;49.882;8.664;2023-02-11T05:38:48;29.17;;;17.07;;
13085;SDS011;6609;49.882;8.664;2023-02-11T05:41:15;30.17;;;16.45;;
13085;SDS011;6609;49.882;8.664;2023-02-11T05:43:43;29.20;;;16.70;;
13085;SDS011;6609;49.882;8.664;2023-02-11T05:46:10;31.73;;;17.40;;
13085;SDS011;6609;49.882;8.664;2023-02-11T05:48:37;30.87;;;16.87;;
13085;SDS011;6609;49.882;8.664;2023-02-11T05:51:05;29.57;;;16.70;;
13085;SDS011;6609;49.882;8.664;2023-02-11T05:53:32;30.60;;;16.50;;
13085;SDS011;6609;49.882;8.664;2023-02-11T05:56:00;32.17;;;16.87;;
13085;SDS011;6609;49.882;8.664;2023-02-11T05:58:27;27.27;;;15.90;;
13085;SDS011;6609;49.882;8.664;2023-02-11T06:00:54;30.17;;;16.40;;
13085;SDS011;6609;49.882;8.664;2023-02-11T06:03:21;29.95;;;17.38;;
13085;SDS011;6609;49.882;8.664;2023-02-11T06:05:48;27.03;;;15.70;;
13085;SDS011;6609;49.882;8.664;2023-02-11T06:08:16;31.57;;;16.17;;
13085;SDS011;6609;49.882;8.664;2023-02-11T06:10:43;31.17;;;16.80;;
13085;SDS011;6609;49.882;8.664;2023-02-11T06:13:10;30.23;;;17.00;;
13085;SDS011;6609;49.882;8.664;2023-02-11T06:15:37;30.53;;;16.27;;
13085;SDS011;6609;49.882;8.664;2023-02-11T06:18:04;26.37;;;14.63;;
13085;SDS011;6609;49.882;8.664;2023-02-11T06:20:32;27.70;;;15.23;;
13085;SDS011;6609;49.882;8.664;2023-02-11T06:22:59;27.37;;;15.17;;
13085;SDS011;6609;49.882;8.664;2023-02-11T06:25:27;28.83;;;14.73;;
13085;SDS011;6609;49.882;8.664;2023-02-11T06:27:54;26.03;;;14.30;;
13085;SDS011;6609;49.882;8.664;2023-02-11T06:30:21;26.50;;;15.13;;
13085;SDS011;6609;49.882;8.664;2023-02-11T06:32:48;29.60;;;16.57;;
13085;SDS011;6609;49.882;8.664;2023-02-11T06:35:23;28.10;;;16.03;;
13085;SDS011;6609;49.882;8.664;2023-02-11T06:37:50;30.23;;;15.93;;
13085;SDS011;6609;49.882;8.664;2023-02-11T06:40:18;29.80;;;16.47;;
13085;SDS011;6609;49.882;8.664;2023-02-11T06:42:46;29.13;;;15.93;;
13085;SDS011;6609;49.882;8.664;2023-02-11T06:45:13;26.53;;;16.47;;
13085;SDS011;6609;49.882;8.664;2023-02-11T06:47:41;31.83;;;15.23;;
13085;SDS011;6609;49.882;8.664;2023-02-11T06:50:10;28.87;;;15.83;;
13085;SDS011;6609;49.882;8.664;2023-02-11T06:52:38;29.67;;;15.50;;
13085;SDS011;6609;49.882;8.664;2023-02-11T06:55:05;26.73;;;15.70;;
13085;SDS011;6609;49.882;8.664;2023-02-11T06:57:32;28.67;;;15.93;;
13085;SDS011;6609;49.882;8.664;2023-02-11T07:00:00;27.93;;;15.43;;
13085;SDS011;6609;49.882;8.664;2023-02-11T07:02:27;28.57;;;15.47;;
13085;SDS011;6609;49.882;8.664;2023-02-11T07:04:54;29.40;;;15.10;;
13085;SDS011;6609;49.882;8.664;2023-02-11T07:07:21;28.30;;;14.43;;
13085;SDS011;6609;49.882;8.664;2023-02-11T07:09:48;28.90;;;15.40;;
13085;SDS011;6609;49.882;8.664;2023-02-11T07:12:15;25.70;;;15.33;;
13085;SDS011;6609;49.882;8.664;2023-02-11T07:14:42;33.37;;;16.23;;
13085;SDS011;6609;49.882;8.664;2023-02-11T07:17:11;26.50;;;15.17;;
13085;SDS011;6609;49.882;8.664;2023-02-11T07:19:38;30.23;;;15.63;;
13085;SDS011;6609;49.882;8.664;2023-02-11T07:22:05;28.90;;;17.03;;
13085;SDS011;6609;49.882;8.664;2023-02-11T07:24:33;27.03;;;15.90;;
13085;SDS011;6609;49.882;8.664;2023-02-11T07:27:00;28.60;;;15.73;;
13085;SDS011;6609;49.882;8.664;2023-02-11T07:29:27;27.13;;;16.07;;
13085;SDS011;6609;49.882;8.664;2023-02-11T07:31:54;27.93;;;15.80;;
13085;SDS011;6609;49.882;8.664;2023-02-11T07:34:22;30.10;;;17.10;;
13085;SDS011;6609;49.882;8.664;2023-02-11T07:36:49;27.87;;;17.37;;
13085;SDS011;6609;49.882;8.664;2023-02-11T07:39:16;28.07;;;15.60;;
13085;SDS011;6609;49.882;8.664;2023-02-11T07:41:44;28.43;;;16.33;;
13085;SDS011;6609;49.882;8.664;2023-02-11T07:44:13;25.73;;;14.93;;
13085;SDS011;6609;49.882;8.664;2023-02-11T07:46:40;30.17;;;15.57;;
13085;SDS011;6609;49.882;8.664;2023-02-11T07:49:09;28.87;;;16.90;;
13085;SDS011;6609;49.882;8.664;2023-02-11T07:51:37;29.00;;;16.50;;
13085;SDS011;6609;49.882;8.664;2023-02-11T07:54:04;27.87;;;15.80;;
13085;SDS011;6609;49.882;8.664;2023-02-11T07:56:31;27.03;;;16.87;;
13085;SDS011;6609;49.882;8.664;2023-02-11T07:58:59;33.67;;;15.30;;
13085;SDS011;6609;49.882;8.664;2023-02-11T08:01:26;27.27;;;15.67;;
13085;SDS011;6609;49.882;8.664;2023-02-11T08:03:53;26.67;;;14.67;;
13085;SDS011;6609;49.882;8.664;2023-02-11T08:06:21;27.80;;;15.77;;
13085;SDS011;6609;49.882;8.664;2023-02-11T08:08:50;25.83;;;15.03;;
13085;SDS011;6609;49.882;8.664;2023-02-11T08:11:18;27.77;;;16.03;;
13085;SDS011;6609;49.882;8.664;2023-02-11T08:13:46;26.07;;;15.53;;
13085;SDS011;6609;49.882;8.664;2023-02-11T08:16:17;28.40;;;15.60;;
13085;SDS011;6609;49.882;8.664;2023-02-11T08:18:45;26.17;;;16.00;;
13085;SDS011;6609;49.882;8.664;2023-02-11T08:21:12;30.87;;;16.43;;
13085;SDS011;6609;49.882;8.664;2023-02-11T08:23:40;27.17;;;14.73;;
13085;SDS011;6609;49.882;8.664;2023-02-11T08:26:10;29.47;;;17.70;;
13085;SDS011;6609;49.882;8.664;2023-02-11T08:28:39;30.63;;;17.33;;
13085;SDS011;6609;49.882;8.664;2023-02-11T08:31:08;31.47;;;17.27;;
13085;SDS011;6609;49.882;8.664;2023-02-11T08:33:37;28.33;;;16.40;;
13085;SDS011;6609;49.882;8.664;2023-02-11T08:36:06;30.13;;;16.47;;
13085;SDS011;6609;49.882;8.664;2023-02-11T08:38:34;29.73;;;18.00;;
13085;SDS011;6609;49.882;8.664;2023-02-11T08:41:00;30.47;;;17.87;;
13085;SDS011;6609;49.882;8.664;2023-02-11T08:43:29;27.73;;;17.17;;
13085;SDS011;6609;49.882;8.664;2023-02-11T08:45:56;30.23;;;15.97;;
13085;SDS011;6609;49.882;8.664;2023-02-11T08:48:24;32.10;;;17.97;;
13085;SDS011;6609;49.882;8.664;2023-02-11T08:50:52;27.57;;;17.13;;
13085;SDS011;6609;49.882;8.664;2023-02-11T08:53:19;29.70;;;17.40;;
13085;SDS011;6609;49.882;8.664;2023-02-11T08:55:47;28.03;;;17.43;;
13085;SDS011;6609;49.882;8.664;2023-02-11T08:58:14;31.10;;;17.90;;
13085;SDS011;6609;49.882;8.664;2023-02-11T09:00:42;27.70;;;16.37;;
13085;SDS011;6609;49.882;8.664;2023-02-11T09:03:09;26.97;;;17.67;;
13085;SDS011;6609;49.882;8.664;2023-02-11T09:05:39;28.83;;;16.60;;
13085;SDS011;6609;49.882;8.664;2023-02-11T09:08:07;27.63;;;17.00;;
13085;SDS011;6609;49.882;8.664;2023-02-11T09:10:34;28.83;;;16.57;;
13085;SDS011;6609;49.882;8.664;2023-02-11T09:13:01;31.87;;;17.77;;
13085;SDS011;6609;49.882;8.664;2023-02-11T09:15:28;26.93;;;16.40;;
13085;SDS011;6609;49.882;8.664;2023-02-11T09:17:56;31.07;;;17.07;;
13085;SDS011;6609;49.882;8.664;2023-02-11T09:20:23;29.90;;;17.60;;
13085;SDS011;6609;49.882;8.664;2023-02-11T09:22:51;28.30;;;16.33;;
13085;SDS011;6609;49.882;8.664;2023-02-11T09:25:18;29.70;;;16.40;;
13085;SDS011;6609;49.882;8.664;2023-02-11T09:27:45;34.50;;;17.20;;
13085;SDS011;6609;49.882;8.664;2023-02-11T09:30:12;29.20;;;16.57;;
13085;SDS011;6609;49.882;8.664;2023-02-11T09:32:39;31.80;;;17.50;;
13085;SDS011;6609;49.882;8.664;2023-02-11T09:35:08;32.13;;;18.73;;
13085;SDS011;6609;49.882;8.664;2023-02-11T09:37:35;33.43;;;18.30;;
13085;SDS011;6609;49.882;8.664;2023-02-11T09:40:02;30.53;;;18.03;;
13085;SDS011;6609;49.882;8.664;2023-02-11T09:42:36;26.87;;;17.63;;
13085;SDS011;6609;49.882;8.664;2023-02-11T09:45:11;28.07;;;16.90;;
13085;SDS011;6609;49.882;8.664;2023-02-11T09:47:53;28.97;;;17.33;;
13085;SDS011;6609;49.882;8.664;2023-02-11T09:50:24;29.13;;;17.57;;
13085;SDS011;6609;49.882;8.664;2023-02-11T09:52:57;30.63;;;17.43;;
13085;SDS011;6609;49.882;8.664;2023-02-11T09:55:26;26.70;;;17.37;;
13085;SDS011;6609;49.882;8.664;2023-02-11T09:57:56;26.20;;;16.63;;
13085;SDS011;6609;49.882;8.664;2023-02-11T10:00:24;30.00;;;17.10;;
13085;SDS011;6609;49.882;8.664;2023-02-11T10:03:08;31.97;;;18.13;;
13085;SDS011;6609;49.882;8.664;2023-02-11T10:05:46;39.43;;;26.10;;
13085;SDS011;6609;49.882;8.664;2023-02-11T10:08:33;33.77;;;20.10;;
13085;SDS011;6609;49.882;8.664;2023-02-11T10:11:07;31.53;;;17.63;;
13085;SDS011;6609;49.882;8.664;2023-02-11T10:13:46;27.63;;;18.20;;
13085;SDS011;6609;49.882;8.664;2023-02-11T10:16:25;33.40;;;17.57;;
13085;SDS011;6609;49.882;8.664;2023-02-11T10:19:08;30.50;;;18.10;;
13085;SDS011;6609;49.882;8.664;2023-02-11T10:21:46;30.27;;;17.90;;
13085;SDS011;6609;49.882;8.664;2023-02-11T10:24:18;25.50;;;16.60;;
13085;SDS011;6609;49.882;8.664;2023-02-11T10:26:46;34.57;;;19.27;;
13085;SDS011;6609;49.882;8.664;2023-02-11T10:29:18;29.00;;;18.17;;
13085;SDS011;6609;49.882;8.664;2023-02-11T10:31:52;33.30;;;17.83;;
13085;SDS011;6609;49.882;8.664;2023-02-11T10:34:19;30.70;;;18.07;;
13085;SDS011;6609;49.882;8.664;2023-02-11T10:36:47;30.70;;;18.47;;
13085;SDS011;6609;49.882;8.664;2023-02-11T10:39:16;35.50;;;19.47;;
13085;SDS011;6609;49.882;8.664;2023-02-11T10:41:45;34.90;;;17.87;;
13085;SDS011;6609;49.882;8.664;2023-02-11T10:44:18;32.03;;;19.63;;
13085;SDS011;6609;49.882;8.664;2023-02-11T10:46:50;31.77;;;18.77;;
13085;SDS011;6609;49.882;8.664;2023-02-11T10:49:38;31.57;;;19.40;;
13085;SDS011;6609;49.882;8.664;2023-02-11T10:54:57;27.10;;;17.67;;
13085;SDS011;6609;49.882;8.664;2023-02-11T10:57:27;29.50;;;17.73;;
13085;SDS011;6609;49.882;8.664;2023-02-11T10:59:56;32.40;;;18.77;;
13085;SDS011;6609;49.882;8.664;2023-02-11T11:02:27;32.97;;;18.37;;
13085;SDS011;6609;49.882;8.664;2023-02-11T11:04:58;30.03;;;17.27;;
13085;SDS011;6609;49.882;8.664;2023-02-11T11:07:28;32.27;;;20.00;;
13085;SDS011;6609;49.882;8.664;2023-02-11T11:09:57;32.53;;;19.27;;
13085;SDS011;6609;49.882;8.664;2023-02-11T11:12:28;33.90;;;19.07;;
13085;SDS011;6609;49.882;8.664;2023-02-11T11:15:00;29.87;;;17.70;;
13085;SDS011;6609;49.882;8.664;2023-02-11T11:17:40;29.50;;;18.83;;
13085;SDS011;6609;49.882;8.664;2023-02-11T11:20:14;31.10;;;18.07;;
13085;SDS011;6609;49.882;8.664;2023-02-11T11:22:46;33.20;;;18.30;;
13085;SDS011;6609;49.882;8.664;2023-02-11T11:25:20;33.40;;;18.23;;
13085;SDS011;6609;49.882;8.664;2023-02-11T11:27:49;36.67;;;17.93;;
13085;SDS011;6609;49.882;8.664;2023-02-11T11:30:16;34.07;;;18.87;;
13085;SDS011;6609;49.882;8.664;2023-02-11T11:32:44;31.07;;;20.13;;
13085;SDS011;6609;49.882;8.664;2023-02-11T11:35:19;32.40;;;19.23;;
13085;SDS011;6609;49.882;8.664;2023-02-11T11:37:52;29.10;;;17.63;;
13085;SDS011;6609;49.882;8.664;2023-02-11T11:40:22;33.87;;;19.67;;
13085;SDS011;6609;49.882;8.664;2023-02-11T11:43:00;28.57;;;18.47;;
13085;SDS011;6609;49.882;8.664;2023-02-11T11:45:32;35.50;;;18.47;;
13085;SDS011;6609;49.882;8.664;2023-02-11T11:48:00;35.20;;;18.57;;
13085;SDS011;6609;49.882;8.664;2023-02-11T11:50:34;30.83;;;19.17;;
13085;SDS011;6609;49.882;8.664;2023-02-11T11:53:09;32.40;;;19.20;;
13085;SDS011;6609;49.882;8.664;2023-02-11T11:55:40;29.37;;;16.53;;
13085;SDS011;6609;49.882;8.664;2023-02-11T11:58:12;29.87;;;17.77;;
13085;SDS011;6609;49.882;8.664;2023-02-11T12:00:49;30.70;;;17.73;;
13085;SDS011;6609;49.882;8.664;2023-02-11T12:03:37;30.93;;;17.17;;
13085;SDS011;6609;49.882;8.664;2023-02-11T12:06:38;34.53;;;17.80;;
13085;SDS011;6609;49.882;8.664;2023-02-11T12:09:11;30.20;;;18.00;;
13085;SDS011;6609;49.882;8.664;2023-02-11T12:11:52;32.43;;;17.87;;
13085;SDS011;6609;49.882;8.664;2023-02-11T12:14:33;27.60;;;16.00;;
13085;SDS011;6609;49.882;8.664;2023-02-11T12:17:08;28.87;;;17.03;;
13085;SDS011;6609;49.882;8.664;2023-02-11T12:19:53;30.73;;;18.50;;
13085;SDS011;6609;49.882;8.664;2023-02-11T12:22:33;30.67;;;16.57;;
13085;SDS011;6609;49.882;8.664;2023-02-11T12:25:20;33.40;;;17.67;;
13085;SDS011;6609;49.882;8.664;2023-02-11T12:27:55;27.37;;;16.63;;
13085;SDS011;6609;49.882;8.664;2023-02-11T12:30:33;31.83;;;18.13;;
13085;SDS011;6609;49.882;8.664;2023-02-11T12:33:15;27.87;;;16.77;;
13085;SDS011;6609;49.882;8.664;2023-02-11T12:35:54;29.67;;;18.10;;
13085;SDS011;6609;49.882;8.664;2023-02-11T12:38:29;31.70;;;16.27;;
13085;SDS011;6609;49.882;8.664;2023-02-11T12:41:11;28.47;;;16.60;;
13085;SDS011;6609;49.882;8.664;2023-02-11T12:44:13;30.80;;;18.47;;
13085;SDS011;6609;49.882;8.664;2023-02-11T12:46:47;26.23;;;16.37;;
13085;SDS011;6609;49.882;8.664;2023-02-11T12:49:25;27.87;;;16.57;;
13085;SDS011;6609;49.882;8.664;2023-02-11T12:52:10;30.37;;;17.20;;
13085;SDS011;6609;49.882;8.664;2023-02-11T12:54:47;28.27;;;17.13;;
13085;SDS011;6609;49.882;8.664;2023-02-11T12:57:21;26.17;;;15.70;;
13085;SDS011;6609;49.882;8.664;2023-02-11T12:59:52;30.20;;;16.70;;
13085;SDS011;6609;49.882;8.664;2023-02-11T13:02:26;29.83;;;17.60;;
13085;SDS011;6609;49.882;8.664;2023-02-11T13:04:59;29.00;;;16.87;;
13085;SDS011;6609;49.882;8.664;2023-02-11T13:07:32;28.57;;;16.43;;
13085;SDS011;6609;49.882;8.664;2023-02-11T13:10:03;35.13;;;17.30;;
13085;SDS011;6609;49.882;8.664;2023-02-11T13:12:51;29.53;;;17.93;;
13085;SDS011;6609;49.882;8.664;2023-02-11T13:15:37;29.20;;;16.87;;
13085;SDS011;6609;49.882;8.664;2023-02-11T13:18:09;29.80;;;18.20;;
13085;SDS011;6609;49.882;8.664;2023-02-11T13:20:44;26.90;;;16.70;;
13085;SDS011;6609;49.882;8.664;2023-02-11T13:23:18;31.70;;;17.33;;
13085;SDS011;6609;49.882;8.664;2023-02-11T13:25:51;31.27;;;17.23;;
13085;SDS011;6609;49.882;8.664;2023-02-11T13:28:26;33.90;;;18.23;;
13085;SDS011;6609;49.882;8.664;2023-02-11T13:31:04;32.67;;;16.83;;
13085;SDS011;6609;49.882;8.664;2023-02-11T13:33:33;28.27;;;17.53;;
13085;SDS011;6609;49.882;8.664;2023-02-11T13:36:20;30.37;;;18.10;;
13085;SDS011;6609;49.882;8.664;2023-02-11T13:38:56;31.07;;;17.13;;
13085;SDS011;6609;49.882;8.664;2023-02-11T13:41:29;30.67;;;16.43;;
13085;SDS011;6609;49.882;8.664;2023-02-11T13:44:04;29.33;;;17.13;;
13085;SDS011;6609;49.882;8.664;2023-02-11T13:46:50;31.57;;;15.63;;
13085;SDS011;6609;49.882;8.664;2023-02-11T13:49:20;27.53;;;14.83;;
13085;SDS011;6609;49.882;8.664;2023-02-11T13:51:50;23.67;;;14.17;;
13085;SDS011;6609;49.882;8.664;2023-02-11T13:54:21;27.33;;;15.40;;
13085;SDS011;6609;49.882;8.664;2023-02-11T14:03:22;26.23;;;14.47;;
13085;SDS011;6609;49.882;8.664;2023-02-11T14:06:12;26.27;;;14.73;;
13085;SDS011;6609;49.882;8.664;2023-02-11T14:14:56;25.30;;;15.60;;
13085;SDS011;6609;49.882;8.664;2023-02-11T14:17:42;25.17;;;13.83;;
13085;SDS011;6609;49.882;8.664;2023-02-11T14:23:06;24.43;;;14.57;;
13085;SDS011;6609;49.882;8.664;2023-02-11T14:25:33;29.00;;;14.07;;
13085;SDS011;6609;49.882;8.664;2023-02-11T14:28:02;25.77;;;15.60;;
13085;SDS011;6609;49.882;8.664;2023-02-11T14:30:45;26.40;;;15.20;;
13085;SDS011;6609;49.882;8.664;2023-02-11T14:36:26;25.97;;;13.50;;
13085;SDS011;6609;49.882;8.664;2023-02-11T14:39:13;27.03;;;14.97;;
13085;SDS011;6609;49.882;8.664;2023-02-11T14:41:47;24.00;;;13.80;;
13085;SDS011;6609;49.882;8.664;2023-02-11T14:44:15;27.03;;;13.83;;
13085;SDS011;6609;49.882;8.664;2023-02-11T14:46:44;22.93;;;14.33;;
13085;SDS011;6609;49.882;8.664;2023-02-11T14:49:15;26.23;;;14.63;;
13085;SDS011;6609;49.882;8.664;2023-02-11T14:51:50;25.70;;;13.33;;
13085;SDS011;6609;49.882;8.664;2023-02-11T14:54:20;28.53;;;15.07;;
13085;SDS011;6609;49.882;8.664;2023-02-11T14:57:04;21.50;;;13.50;;
13085;SDS011;6609;49.882;8.664;2023-02-11T14:59:32;23.83;;;13.00;;
13085;SDS011;6609;49.882;8.664;2023-02-11T15:01:59;24.07;;;13.30;;
13085;SDS011;6609;49.882;8.664;2023-02-11T15:04:27;22.90;;;14.17;;
13085;SDS011;6609;49.882;8.664;2023-02-11T15:06:56;21.53;;;13.20;;
13085;SDS011;6609;49.882;8.664;2023-02-11T15:09:27;22.10;;;13.40;;
13085;SDS011;6609;49.882;8.664;2023-02-11T15:11:59;25.87;;;13.00;;
13085;SDS011;6609;49.882;8.664;2023-02-11T15:14:27;25.13;;;13.80;;
13085;SDS011;6609;49.882;8.664;2023-02-11T15:16:56;22.40;;;12.80;;
13085;SDS011;6609;49.882;8.664;2023-02-11T15:19:27;23.87;;;13.30;;
13085;SDS011;6609;49.882;8.664;2023-02-11T15:21:57;23.30;;;13.80;;